Time;durP1;ratioP1;P1;durP2;ratioP2;P2;SDS_P1;SDS_P2;PMS_P1;PMS_P2;Temp;Humidity;BMP_temperature;BMP_pressure;BME280_temperature;BME280_humidity;BME280_pressure;Samples;Min_cycle;Max_cycle;Signal;HPM_P1;HPM_P2
2022/05/26 00:01:55;;;;;;;0.00;0.00;;;18.20;79.60;;;;;;4973768;28;20044;-66
2022/05/26 00:04:20;;;;;;;0.00;0.00;;;18.20;80.30;;;;;;4973629;28;20030;-66
2022/05/26 00:06:46;;;;;;;0.00;0.00;;;18.10;80.10;;;;;;4973558;28;20030;-65
2022/05/26 00:09:12;;;;;;;0.00;0.00;;;18.10;80.20;;;;;;4972979;28;20038;-65
2022/05/26 00:11:39;;;;;;;0.00;0.00;;;18.00;80.70;;;;;;4973140;28;20039;-65
2022/05/26 00:14:09;;;;;;;0.00;0.00;;;18.00;80.80;;;;;;4973090;28;20035;-66
2022/05/26 00:16:43;;;;;;;0.00;0.00;;;18.00;81.00;;;;;;4973135;28;20038;-66
2022/05/26 00:19:12;;;;;;;0.13;0.10;;;18.00;81.30;;;;;;4972104;28;20034;-65
2022/05/26 00:21:38;;;;;;;3.10;0.57;;;18.00;81.50;;;;;;4974197;28;20109;-63
2022/05/26 00:24:05;;;;;;;0.00;0.00;;;18.00;81.50;;;;;;4973076;28;20055;-65
2022/05/26 00:26:31;;;;;;;0.10;0.10;;;17.90;81.90;;;;;;4973080;28;20395;-66
2022/05/26 00:28:57;;;;;;;0.00;0.00;;;17.90;81.70;;;;;;4972220;28;20042;-65
2022/05/26 00:31:23;;;;;;;0.30;0.30;;;17.90;81.80;;;;;;4973452;28;20043;-65
2022/05/26 00:33:49;;;;;;;0.00;0.00;;;18.00;82.10;;;;;;4973255;28;20031;-65
2022/05/26 00:36:17;;;;;;;0.00;0.00;;;17.90;82.30;;;;;;4972819;28;20077;-65
2022/05/26 00:38:43;;;;;;;0.10;0.10;;;17.90;82.50;;;;;;4971353;28;20039;-65
2022/05/26 00:41:13;;;;;;;0.00;0.00;;;17.80;82.90;;;;;;4938429;29;20042;-66
2022/05/26 00:43:44;;;;;;;0.00;0.00;;;17.80;82.90;;;;;;4971845;28;20387;-64
2022/05/26 00:46:23;;;;;;;0.95;0.45;;;17.70;83.30;;;;;;4972226;28;20118;-64
2022/05/26 00:48:59;;;;;;;0.00;0.00;;;17.60;83.60;;;;;;4970685;28;20054;-64
2022/05/26 00:51:35;;;;;;;0.00;0.00;;;17.60;84.00;;;;;;4971472;28;20399;-64
2022/05/26 00:54:09;;;;;;;0.00;0.00;;;17.60;84.10;;;;;;4971448;28;20567;-64
2022/05/26 00:57:01;;;;;;;0.00;0.00;;;17.50;84.70;;;;;;4971372;28;20559;-64
2022/05/26 00:59:52;;;;;;;0.00;0.00;;;17.50;85.10;;;;;;4971695;28;20031;-64
2022/05/26 01:02:23;;;;;;;0.00;0.00;;;17.60;85.60;;;;;;4971784;28;20503;-64
2022/05/26 01:04:56;;;;;;;0.00;0.00;;;17.50;86.30;;;;;;4965558;28;20550;-64
2022/05/26 01:07:31;;;;;;;0.00;0.00;;;17.50;86.60;;;;;;4949459;28;20123;-64
2022/05/26 01:09:57;;;;;;;0.00;0.00;;;17.60;86.90;;;;;;4950689;28;20078;-64
2022/05/26 01:12:23;;;;;;;0.00;0.00;;;17.40;87.80;;;;;;4960811;28;20093;-64
2022/05/26 01:15:02;;;;;;;0.00;0.00;;;17.30;88.60;;;;;;4971957;28;20035;-64
2022/05/26 01:18:21;;;;;;;0.40;0.17;;;17.30;89.30;;;;;;4955446;28;20490;-65
2022/05/26 01:21:16;;;;;;;0.00;0.00;;;17.30;89.20;;;;;;4972014;28;20065;-64
2022/05/26 01:24:00;;;;;;;0.00;0.00;;;17.30;89.90;;;;;;4951503;28;20035;-64
2022/05/26 01:27:07;;;;;;;0.00;0.00;;;17.30;90.10;;;;;;4935688;29;20078;-65
2022/05/26 01:30:13;;;;;;;0.00;0.00;;;17.30;90.20;;;;;;4951443;28;20126;-64
2022/05/26 01:32:54;;;;;;;0.00;0.00;;;17.30;90.50;;;;;;4936415;29;20504;-64
2022/05/26 01:35:33;;;;;;;0.00;0.00;;;17.30;90.70;;;;;;4952652;29;20035;-64
2022/05/26 01:38:13;;;;;;;0.03;0.03;;;17.30;90.60;;;;;;4952649;29;20039;-64
2022/05/26 01:41:18;;;;;;;0.00;0.00;;;17.10;90.70;;;;;;4935799;29;20417;-64
2022/05/26 01:44:11;;;;;;;0.00;0.00;;;17.20;91.00;;;;;;4952436;29;20110;-64
2022/05/26 01:46:45;;;;;;;0.05;0.05;;;17.10;91.20;;;;;;4933359;29;20098;-64
2022/05/26 01:49:32;;;;;;;0.00;0.00;;;17.10;91.40;;;;;;4934501;29;20101;-64
2022/05/26 01:52:18;;;;;;;0.00;0.00;;;17.00;91.80;;;;;;4935892;29;20031;-64
2022/05/26 01:54:58;;;;;;;0.00;0.00;;;17.00;91.80;;;;;;4952392;29;20039;-64
2022/05/26 01:57:54;;;;;;;0.00;0.00;;;17.00;91.90;;;;;;4952365;29;20042;-64
2022/05/26 02:00:21;;;;;;;0.00;0.00;;;16.90;92.10;;;;;;4951362;29;20109;-64
2022/05/26 02:03:04;;;;;;;0.00;0.00;;;16.90;92.10;;;;;;4935314;29;20023;-64
2022/05/26 02:05:39;;;;;;;0.00;0.00;;;16.90;92.10;;;;;;4920385;29;20483;-64
2022/05/26 02:08:15;;;;;;;0.00;0.00;;;16.90;92.30;;;;;;4951747;28;20216;-65
2022/05/26 02:10:55;;;;;;;0.05;0.05;;;17.00;92.20;;;;;;4935582;29;20035;-64
2022/05/26 02:13:36;;;;;;;0.00;0.00;;;17.00;92.50;;;;;;4951989;28;20034;-65
2022/05/26 02:16:28;;;;;;;0.00;0.00;;;16.90;92.90;;;;;;4954289;28;20035;-64
2022/05/26 02:22:18;;;;;;;0.00;0.00;;;16.90;92.90;;;;;;5000242;28;20115;-64
2022/05/26 02:25:19;;;;;;;0.00;0.00;;;16.80;93.30;;;;;;4979725;28;20027;-64
2022/05/26 02:27:47;;;;;;;0.00;0.00;;;16.80;93.40;;;;;;4973186;28;20085;-63
2022/05/26 02:30:14;;;;;;;0.00;0.00;;;16.80;93.30;;;;;;4984193;28;20499;-64
2022/05/26 02:32:50;;;;;;;0.00;0.00;;;16.90;93.40;;;;;;4957837;28;20042;-64
2022/05/26 02:35:26;;;;;;;0.35;0.15;;;16.80;93.80;;;;;;4975373;28;20030;-64
2022/05/26 02:38:26;;;;;;;0.10;0.10;;;16.70;93.90;;;;;;4958103;28;20478;-64
2022/05/26 02:40:54;;;;;;;0.00;0.00;;;16.70;94.10;;;;;;4972992;28;20047;-64
2022/05/26 02:43:26;;;;;;;0.98;0.75;;;16.70;94.10;;;;;;4963457;28;20467;-64
2022/05/26 02:46:42;;;;;;;0.00;0.00;;;16.70;94.20;;;;;;4938821;29;20472;-64
2022/05/26 02:50:06;;;;;;;0.00;0.00;;;16.70;94.40;;;;;;4954754;29;20065;-65
2022/05/26 02:53:05;;;;;;;0.00;0.00;;;16.70;94.40;;;;;;4952322;29;20046;-64
2022/05/26 02:56:08;;;;;;;0.03;0.03;;;16.60;94.50;;;;;;4938892;29;20031;-64
2022/05/26 02:59:12;;;;;;;0.00;0.00;;;16.60;94.60;;;;;;4954588;29;20090;-65
2022/05/26 03:02:10;;;;;;;0.00;0.00;;;16.60;94.50;;;;;;4939282;29;20041;-65
2022/05/26 03:04:43;;;;;;;0.00;0.00;;;16.70;93.90;;;;;;4938862;28;20042;-65
2022/05/26 03:07:17;;;;;;;5.45;1.00;;;16.60;94.00;;;;;;4960624;28;20346;-65
2022/05/26 03:09:43;;;;;;;1.85;1.25;;;16.70;94.00;;;;;;4956670;28;20027;-64
2022/05/26 03:12:33;;;;;;;0.00;0.00;;;16.70;94.40;;;;;;4956935;28;20136;-65
2022/05/26 03:14:59;;;;;;;0.00;0.00;;;16.60;94.50;;;;;;4953471;29;20051;-64
2022/05/26 03:17:25;;;;;;;0.17;0.17;;;16.50;94.60;;;;;;4937612;28;20077;-64
2022/05/26 03:19:51;;;;;;;0.63;0.63;;;16.50;94.80;;;;;;4953881;28;20492;-64
2022/05/26 03:22:17;;;;;;;0.03;0.03;;;16.50;95.00;;;;;;4937816;29;20063;-64
2022/05/26 03:24:43;;;;;;;0.00;0.00;;;16.40;95.10;;;;;;4968394;28;20378;-65
2022/05/26 03:27:09;;;;;;;0.00;0.00;;;16.50;95.10;;;;;;4974091;28;20030;-64
2022/05/26 03:29:35;;;;;;;0.45;0.45;;;16.50;95.20;;;;;;4973319;28;20066;-65
2022/05/26 03:32:01;;;;;;;6.93;0.52;;;16.50;95.20;;;;;;4974262;28;20077;-64
2022/05/26 03:42:50;;;;;;;0.88;0.88;;;16.30;96.10;;;;;;4966738;28;20035;-64
2022/05/26 03:45:23;;;;;;;0.00;0.00;;;16.20;96.50;;;;;;4973513;28;20035;-64
2022/05/26 03:47:50;;;;;;;0.00;0.00;;;16.30;96.50;;;;;;4972841;28;20031;-64
2022/05/26 03:50:17;;;;;;;0.00;0.00;;;16.20;96.80;;;;;;4971485;28;20034;-64
2022/05/26 03:52:42;;;;;;;0.00;0.00;;;16.10;97.10;;;;;;4973523;28;20037;-64
2022/05/26 03:55:09;;;;;;;0.05;0.05;;;16.00;97.60;;;;;;4971837;28;20030;-65
2022/05/26 03:57:34;;;;;;;0.00;0.00;;;16.00;97.80;;;;;;4973699;28;20039;-64
2022/05/26 04:00:01;;;;;;;0.00;0.00;;;16.00;98.20;;;;;;4972569;28;20123;-65
2022/05/26 04:02:27;;;;;;;0.00;0.00;;;16.00;98.10;;;;;;4972437;28;20034;-65
2022/05/26 04:04:53;;;;;;;0.00;0.00;;;16.00;98.20;;;;;;4972056;28;20093;-65
2022/05/26 04:07:19;;;;;;;0.00;0.00;;;16.00;98.60;;;;;;4973694;28;20415;-65
2022/05/26 04:09:45;;;;;;;0.00;0.00;;;15.90;99.00;;;;;;4971234;28;20039;-64
2022/05/26 04:12:12;;;;;;;0.00;0.00;;;15.90;99.50;;;;;;4973197;28;20077;-65
2022/05/26 04:14:38;;;;;;;0.00;0.00;;;15.80;99.70;;;;;;4968571;28;20106;-64
2022/05/26 04:17:05;;;;;;;0.00;0.00;;;15.70;99.90;;;;;;4954015;28;20031;-65
2022/05/26 04:19:30;;;;;;;0.00;0.00;;;15.70;99.90;;;;;;4952809;28;20047;-65
2022/05/26 04:24:41;;;;;;;0.00;0.00;;;15.80;99.90;;;;;;4958450;28;20052;-65
2022/05/26 04:27:08;;;;;;;0.00;0.00;;;15.80;99.90;;;;;;4973081;28;20022;-65
2022/05/26 04:29:35;;;;;;;0.00;0.00;;;15.80;99.90;;;;;;4954844;28;20051;-65
2022/05/26 04:32:02;;;;;;;0.00;0.00;;;15.80;99.90;;;;;;4955963;28;20086;-66
2022/05/26 04:34:28;;;;;;;0.00;0.00;;;15.70;99.90;;;;;;4972951;28;20058;-65
2022/05/26 04:36:54;;;;;;;1.38;0.52;;;15.70;99.90;;;;;;4972363;28;20066;-65
2022/05/26 04:39:20;;;;;;;0.00;0.00;;;15.80;99.90;;;;;;4971874;28;20097;-65
2022/05/26 04:41:47;;;;;;;0.00;0.00;;;15.80;99.90;;;;;;4955143;28;20027;-65
2022/05/26 04:44:17;;;;;;;0.00;0.00;;;15.80;99.90;;;;;;4971890;28;20033;-65
2022/05/26 04:46:43;;;;;;;0.00;0.00;;;15.90;99.90;;;;;;4971680;28;20041;-65
2022/05/26 04:49:09;;;;;;;0.00;0.00;;;15.90;99.90;;;;;;4954652;28;20031;-65
2022/05/26 04:51:37;;;;;;;0.00;0.00;;;16.00;99.90;;;;;;4939533;28;20452;-65
2022/05/26 04:54:05;;;;;;;1.23;0.65;;;16.10;99.90;;;;;;4955746;28;20109;-65
2022/05/26 04:56:31;;;;;;;0.00;0.00;;;16.00;99.90;;;;;;4972233;28;20499;-65
2022/05/26 04:58:57;;;;;;;0.00;0.00;;;16.00;99.90;;;;;;4971674;28;20038;-65
2022/05/26 05:01:24;;;;;;;0.00;0.00;;;16.10;99.90;;;;;;4953745;28;20458;-65
2022/05/26 05:03:50;;;;;;;0.00;0.00;;;16.10;99.90;;;;;;4970133;28;20030;-65
2022/05/26 05:06:17;;;;;;;0.00;0.00;;;16.10;99.90;;;;;;4962373;28;20057;-65
2022/05/26 05:08:44;;;;;;;0.70;0.45;;;16.00;99.90;;;;;;4971413;28;20035;-65
2022/05/26 05:11:11;;;;;;;0.00;0.00;;;16.10;99.90;;;;;;4956904;28;20051;-65
2022/05/26 05:13:38;;;;;;;3.60;1.65;;;16.10;99.90;;;;;;4955087;28;20479;-65
2022/05/26 05:16:34;;;;;;;0.00;0.00;;;16.00;99.90;;;;;;4940217;29;20168;-65
2022/05/26 05:19:00;;;;;;;0.00;0.00;;;16.20;99.90;;;;;;4933717;29;20047;-65
2022/05/26 05:21:49;;;;;;;0.00;0.00;;;16.30;99.90;;;;;;4935330;29;20035;-65
2022/05/26 05:24:29;;;;;;;2.35;1.52;;;16.10;99.90;;;;;;4937634;29;20043;-65
2022/05/26 05:27:03;;;;;;;0.10;0.10;;;16.10;99.90;;;;;;4953810;28;20451;-65
2022/05/26 05:29:36;;;;;;;0.00;0.00;;;16.10;99.90;;;;;;4967022;28;20462;-65
2022/05/26 05:32:16;;;;;;;0.10;0.10;;;16.00;99.90;;;;;;4948574;28;20038;-65
2022/05/26 05:34:48;;;;;;;0.00;0.00;;;16.00;99.90;;;;;;4967654;28;20042;-65
2022/05/26 05:37:14;;;;;;;0.00;0.00;;;16.10;99.90;;;;;;4969277;28;20031;-65
2022/05/26 05:39:40;;;;;;;0.00;0.00;;;16.20;99.90;;;;;;4966971;28;20509;-65
2022/05/26 05:42:06;;;;;;;0.00;0.00;;;16.10;99.90;;;;;;4964432;28;20034;-65
2022/05/26 05:44:33;;;;;;;0.00;0.00;;;16.20;99.90;;;;;;4951616;28;20030;-67
2022/05/26 05:46:59;;;;;;;0.00;0.00;;;16.30;99.90;;;;;;4958362;28;20082;-67
2022/05/26 05:49:31;;;;;;;2.08;1.55;;;16.20;99.90;;;;;;4967889;28;20031;-66
2022/05/26 05:52:06;;;;;;;0.00;0.00;;;16.20;99.90;;;;;;4944339;28;20447;-66
2022/05/26 05:54:32;;;;;;;0.00;0.00;;;16.30;99.90;;;;;;4945433;28;20037;-67
2022/05/26 05:56:58;;;;;;;0.00;0.00;;;16.20;99.90;;;;;;4960768;28;20077;-66
2022/05/26 05:59:24;;;;;;;0.10;0.10;;;16.40;99.90;;;;;;4945216;28;20050;-67
2022/05/26 06:01:49;;;;;;;0.00;0.00;;;16.40;99.90;;;;;;4970516;28;20073;-67
2022/05/26 06:04:15;;;;;;;0.00;0.00;;;16.50;99.90;;;;;;4971350;28;20054;-67
2022/05/26 06:06:43;;;;;;;0.00;0.00;;;16.60;99.90;;;;;;4971376;28;20031;-67
2022/05/26 06:09:18;;;;;;;0.00;0.00;;;16.70;99.90;;;;;;4952965;28;20045;-67
2022/05/26 06:11:44;;;;;;;0.00;0.00;;;16.80;99.90;;;;;;4955124;28;20050;-67
2022/05/26 06:14:11;;;;;;;0.00;0.00;;;16.70;99.90;;;;;;4971580;28;20038;-67
2022/05/26 06:16:37;;;;;;;0.00;0.00;;;16.80;99.90;;;;;;4971191;28;20101;-67
2022/05/26 06:19:03;;;;;;;0.00;0.00;;;16.90;99.90;;;;;;4951472;28;20105;-67
2022/05/26 06:21:28;;;;;;;0.10;0.10;;;17.00;99.90;;;;;;4973086;28;20487;-68
2022/05/26 06:23:59;;;;;;;0.00;0.00;;;17.20;99.90;;;;;;4968789;28;20069;-66
2022/05/26 06:26:28;;;;;;;0.00;0.00;;;17.00;99.90;;;;;;4971304;28;20035;-67
2022/05/26 06:37:13;;;;;;;0.00;0.00;;;17.00;99.90;;;;;;4963116;28;20106;-68
2022/05/26 06:37:15;;;;;;;0.00;0.00;;;17.10;99.90;;;;;;4971372;28;20030;-68
2022/05/26 06:39:41;;;;;;;0.00;0.00;;;17.30;99.90;;;;;;4952922;28;20102;-67
2022/05/26 06:42:09;;;;;;;0.00;0.00;;;17.30;99.90;;;;;;4954081;28;20026;-67
2022/05/26 06:44:44;;;;;;;0.00;0.00;;;17.30;99.90;;;;;;4954232;28;20038;-66
2022/05/26 06:47:15;;;;;;;0.00;0.00;;;17.40;99.90;;;;;;4953961;28;20041;-66
2022/05/26 06:49:41;;;;;;;17.83;1.00;;;17.40;99.90;;;;;;4952836;28;20072;-67
2022/05/26 06:52:09;;;;;;;0.08;0.08;;;17.40;99.90;;;;;;4959314;28;20038;-67
2022/05/26 06:54:39;;;;;;;0.10;0.10;;;17.50;99.90;;;;;;4970871;28;20121;-67
2022/05/26 06:57:06;;;;;;;0.00;0.00;;;17.40;99.90;;;;;;4954280;28;20035;-67
2022/05/26 06:59:33;;;;;;;0.00;0.00;;;17.50;99.90;;;;;;4970022;28;20039;-67
2022/05/26 07:01:59;;;;;;;0.00;0.00;;;17.60;99.90;;;;;;4953615;28;20129;-67
2022/05/26 07:04:26;;;;;;;1.42;0.88;;;17.40;99.90;;;;;;4953875;28;20161;-67
2022/05/26 07:06:53;;;;;;;0.00;0.00;;;17.40;99.90;;;;;;4953689;28;20035;-68
2022/05/26 07:09:22;;;;;;;0.80;0.75;;;17.50;99.90;;;;;;4954035;28;20047;-67
2022/05/26 07:11:48;;;;;;;0.00;0.00;;;17.50;99.90;;;;;;4974588;28;20038;-67
2022/05/26 07:14:14;;;;;;;0.43;0.32;;;17.70;99.90;;;;;;4956816;28;20030;-70
2022/05/26 07:16:41;;;;;;;0.00;0.00;;;17.80;99.90;;;;;;4954937;28;20035;-67
2022/05/26 07:19:08;;;;;;;0.00;0.00;;;17.70;99.90;;;;;;4955302;28;20500;-68
2022/05/26 07:21:33;;;;;;;0.00;0.00;;;17.80;99.90;;;;;;4989208;28;20506;-68
2022/05/26 07:24:00;;;;;;;0.10;0.10;;;17.90;99.90;;;;;;4994066;28;20062;-69
2022/05/26 07:26:28;;;;;;;0.08;0.08;;;17.80;99.90;;;;;;4975823;28;20475;-68
2022/05/26 07:28:55;;;;;;;0.00;0.00;;;17.70;99.90;;;;;;4975938;28;20030;-68
2022/05/26 07:31:21;;;;;;;0.00;0.00;;;17.80;99.90;;;;;;4975985;28;20034;-67
2022/05/26 07:33:47;;;;;;;0.75;0.47;;;17.80;99.90;;;;;;4954749;28;20032;-69
2022/05/26 07:41:46;;;;;;;0.00;0.00;;;17.90;99.90;;;;;;4954594;29;20023;-68
2022/05/26 07:44:12;;;;;;;0.00;0.00;;;17.80;99.90;;;;;;4953044;28;20023;-68
2022/05/26 07:46:38;;;;;;;0.00;0.00;;;17.80;99.90;;;;;;4952850;28;20098;-68
2022/05/26 07:49:05;;;;;;;0.00;0.00;;;17.60;99.90;;;;;;4953261;28;20042;-67
2022/05/26 07:51:31;;;;;;;0.00;0.00;;;17.60;99.90;;;;;;4954357;29;20042;-69
2022/05/26 07:54:00;;;;;;;0.00;0.00;;;17.70;99.90;;;;;;4964202;28;20486;-69
2022/05/26 07:56:30;;;;;;;0.10;0.10;;;17.80;99.90;;;;;;4962188;28;20042;-69
2022/05/26 07:58:56;;;;;;;0.00;0.00;;;17.90;99.90;;;;;;4954293;28;20039;-67
2022/05/26 08:01:22;;;;;;;0.32;0.32;;;18.00;99.90;;;;;;4973373;28;20395;-69
2022/05/26 08:03:48;;;;;;;0.00;0.00;;;17.90;99.90;;;;;;4973295;28;20030;-69
2022/05/26 08:06:14;;;;;;;0.20;0.20;;;18.00;99.90;;;;;;4973469;28;20058;-67
2022/05/26 08:08:40;;;;;;;0.00;0.00;;;18.10;99.90;;;;;;4971228;28;20044;-68
2022/05/26 08:11:06;;;;;;;0.00;0.00;;;18.30;99.90;;;;;;4971801;28;20165;-68
2022/05/26 08:13:32;;;;;;;0.03;0.03;;;18.30;99.90;;;;;;4973198;28;20026;-68
2022/05/26 08:15:58;;;;;;;0.00;0.00;;;18.40;99.70;;;;;;4972946;28;20034;-68
2022/05/26 08:18:27;;;;;;;0.00;0.00;;;18.50;99.40;;;;;;4971626;28;20026;-68
2022/05/26 08:20:53;;;;;;;0.00;0.00;;;18.50;99.30;;;;;;4988344;23;20055;-66
2022/05/26 08:23:23;;;;;;;0.03;0.00;;;18.40;99.40;;;;;;4977153;28;20403;-66
2022/05/26 08:25:48;;;;;;;0.00;0.00;;;18.50;99.40;;;;;;4972911;28;20125;-65
2022/05/26 08:28:14;;;;;;;0.10;0.10;;;18.30;99.60;;;;;;4972939;28;20165;-65
2022/05/26 08:30:40;;;;;;;0.00;0.00;;;18.20;99.90;;;;;;4967580;28;20116;-65
2022/05/26 08:33:06;;;;;;;1.27;0.30;;;18.10;99.90;;;;;;4953324;28;20038;-65
2022/05/26 08:35:31;;;;;;;0.15;0.15;;;18.20;99.90;;;;;;4953206;29;20027;-66
2022/05/26 08:37:57;;;;;;;0.00;0.00;;;18.30;99.90;;;;;;4953526;28;20467;-66
2022/05/26 08:40:43;;;;;;;0.00;0.00;;;18.40;99.90;;;;;;4952398;29;20475;-66
2022/05/26 08:43:21;;;;;;;0.00;0.00;;;18.30;99.90;;;;;;4952071;29;20110;-66
2022/05/26 08:45:53;;;;;;;0.10;0.05;;;18.20;99.90;;;;;;4952246;29;20372;-66
2022/05/26 08:49:10;;;;;;;0.00;0.00;;;18.30;99.90;;;;;;4952074;29;20035;-66
2022/05/26 08:52:00;;;;;;;0.15;0.15;;;18.30;99.90;;;;;;4952131;29;20042;-66
2022/05/26 08:54:38;;;;;;;0.00;0.00;;;18.20;99.70;;;;;;4953160;28;20035;-65
2022/05/26 08:57:12;;;;;;;0.00;0.00;;;18.30;99.60;;;;;;4951628;29;20122;-66
2022/05/26 08:59:44;;;;;;;0.00;0.00;;;18.20;99.90;;;;;;4944719;28;20111;-66
2022/05/26 09:02:37;;;;;;;0.00;0.00;;;18.30;99.90;;;;;;4952588;29;20492;-66
2022/05/26 09:05:22;;;;;;;0.00;0.00;;;18.40;99.90;;;;;;4951515;29;20027;-66
2022/05/26 09:13:56;;;;;;;3.42;1.00;;;18.80;99.40;;;;;;4951729;29;20093;-65
2022/05/26 09:16:22;;;;;;;0.00;0.00;;;19.10;98.80;;;;;;4940060;28;20678;-65
2022/05/26 09:19:15;;;;;;;0.03;0.03;;;19.10;99.00;;;;;;4951702;28;20415;-65
2022/05/26 09:21:42;;;;;;;0.00;0.00;;;19.20;98.70;;;;;;4944551;28;20056;-66
2022/05/26 09:24:24;;;;;;;0.00;0.00;;;19.10;98.60;;;;;;4975397;28;20463;-65
2022/05/26 09:27:04;;;;;;;0.00;0.00;;;19.10;98.70;;;;;;4971750;28;20038;-67
2022/05/26 09:29:34;;;;;;;0.10;0.10;;;18.90;98.20;;;;;;4969764;28;20062;-67
2022/05/26 09:32:03;;;;;;;0.00;0.00;;;18.80;98.60;;;;;;4970621;28;20037;-66
2022/05/26 09:34:32;;;;;;;0.00;0.00;;;18.70;99.10;;;;;;4971477;28;20050;-66
2022/05/26 09:37:05;;;;;;;0.00;0.00;;;18.80;98.90;;;;;;4970788;28;20642;-66
2022/05/26 09:39:37;;;;;;;0.00;0.00;;;18.80;99.00;;;;;;4970987;28;20144;-66
2022/05/26 09:42:28;;;;;;;1.35;0.63;;;18.80;98.80;;;;;;4971881;28;20034;-65
2022/05/26 09:45:03;;;;;;;0.00;0.00;;;18.90;98.40;;;;;;4986523;28;20026;-66
2022/05/26 09:47:39;;;;;;;0.00;0.00;;;19.10;98.10;;;;;;4971044;28;20047;-66
2022/05/26 09:50:16;;;;;;;0.10;0.10;;;19.30;97.90;;;;;;4985282;28;20034;-65
2022/05/26 09:52:46;;;;;;;0.17;0.10;;;19.40;97.40;;;;;;4985200;28;20486;-65
2022/05/26 09:55:29;;;;;;;0.00;0.00;;;19.70;96.90;;;;;;4970002;28;20034;-65
2022/05/26 09:58:37;;;;;;;0.43;0.43;;;19.90;97.60;;;;;;4971570;28;20038;-65
2022/05/26 10:01:17;;;;;;;0.00;0.00;;;19.80;97.00;;;;;;4930284;29;20139;-64
2022/05/26 10:03:58;;;;;;;0.00;0.00;;;19.90;96.60;;;;;;4968754;28;20094;-64
2022/05/26 10:06:35;;;;;;;0.05;0.05;;;19.70;96.80;;;;;;4967011;28;20118;-65
2022/05/26 10:09:59;;;;;;;0.45;0.43;;;19.70;96.60;;;;;;4950330;29;20035;-65
2022/05/26 10:12:49;;;;;;;0.00;0.00;;;19.70;97.10;;;;;;4951811;28;20482;-65
2022/05/26 10:15:51;;;;;;;0.00;0.00;;;19.80;96.60;;;;;;4960383;28;20062;-65
2022/05/26 10:18:54;;;;;;;0.17;0.17;;;19.80;96.70;;;;;;4948363;28;20035;-65
2022/05/26 10:21:52;;;;;;;0.22;0.20;;;19.80;96.50;;;;;;4970118;28;20050;-65
2022/05/26 10:25:36;;;;;;;0.00;0.00;;;19.60;96.40;;;;;;4970636;28;20628;-64
2022/05/26 10:28:47;;;;;;;0.25;0.25;;;19.40;96.80;;;;;;4958246;28;20034;-65
2022/05/26 10:32:05;;;;;;;0.00;0.00;;;19.40;96.60;;;;;;4963445;28;20039;-66
2022/05/26 10:35:07;;;;;;;0.45;0.20;;;19.20;96.30;;;;;;4943688;28;20495;-65
2022/05/26 10:37:51;;;;;;;0.70;0.38;;;19.20;96.30;;;;;;4970956;28;20105;-65
2022/05/26 10:40:54;;;;;;;0.00;0.00;;;19.30;95.70;;;;;;4969961;28;20035;-65
2022/05/26 10:43:50;;;;;;;0.00;0.00;;;19.20;96.00;;;;;;4970616;28;20035;-65
2022/05/26 10:46:19;;;;;;;0.00;0.00;;;19.30;95.80;;;;;;4972860;28;20043;-66
2022/05/26 10:49:03;;;;;;;0.00;0.00;;;19.30;95.70;;;;;;4974083;28;20045;-65
2022/05/26 10:51:38;;;;;;;0.10;0.10;;;19.20;96.20;;;;;;4974748;28;20066;-65
2022/05/26 10:54:15;;;;;;;0.00;0.00;;;19.20;95.80;;;;;;4973127;28;20509;-65
2022/05/26 10:56:48;;;;;;;0.00;0.00;;;18.90;96.00;;;;;;4972471;28;20031;-65
2022/05/26 10:59:23;;;;;;;0.00;0.00;;;19.00;96.00;;;;;;4973146;28;20101;-65
2022/05/26 11:02:01;;;;;;;1.10;0.65;;;18.90;96.20;;;;;;4973201;28;20031;-65
2022/05/26 11:04:42;;;;;;;0.55;0.55;;;19.10;95.70;;;;;;4972442;28;20174;-66
2022/05/26 11:07:42;;;;;;;0.00;0.00;;;19.20;95.70;;;;;;4974321;28;20031;-65
2022/05/26 11:10:31;;;;;;;0.15;0.15;;;19.20;95.80;;;;;;4973695;28;20090;-66
2022/05/26 11:13:45;;;;;;;0.00;0.00;;;19.50;95.50;;;;;;4973028;28;20102;-66
2022/05/26 11:19:52;;;;;;;0.00;0.00;;;19.50;95.00;;;;;;4960734;28;20390;-65
2022/05/26 11:22:19;;;;;;;0.00;0.00;;;19.80;94.70;;;;;;4973241;28;20027;-64
2022/05/26 11:24:51;;;;;;;0.00;0.00;;;19.70;94.40;;;;;;4973760;28;20034;-64
2022/05/26 11:27:26;;;;;;;0.10;0.10;;;19.40;93.60;;;;;;4972083;28;20035;-64
2022/05/26 11:30:03;;;;;;;0.00;0.00;;;19.60;94.10;;;;;;4972095;28;20095;-64
2022/05/26 11:38:35;;;;;;;0.00;0.00;;;20.00;95.30;;;;;;4973982;28;20062;-65
2022/05/26 11:41:01;;;;;;;0.00;0.00;;;20.20;95.30;;;;;;4988265;28;20043;-64
2022/05/26 11:43:46;;;;;;;0.20;0.20;;;20.50;94.20;;;;;;4973955;28;20042;-65
2022/05/26 11:46:43;;;;;;;0.28;0.25;;;20.80;93.90;;;;;;4987127;28;20102;-65
2022/05/26 11:49:11;;;;;;;0.30;0.22;;;20.70;94.00;;;;;;4972282;28;20039;-65
2022/05/26 11:51:39;;;;;;;0.25;0.25;;;21.10;93.90;;;;;;4973366;28;20089;-65
2022/05/26 11:54:10;;;;;;;0.90;0.15;;;21.00;92.60;;;;;;4988229;28;20031;-64
2022/05/26 11:56:42;;;;;;;0.00;0.00;;;21.40;91.10;;;;;;4972633;28;20053;-65
2022/05/26 11:59:32;;;;;;;0.00;0.00;;;21.20;91.50;;;;;;4971667;28;20047;-65
2022/05/26 12:02:00;;;;;;;0.00;0.00;;;20.90;91.90;;;;;;4968267;28;20028;-65
2022/05/26 12:04:31;;;;;;;0.00;0.00;;;20.90;92.30;;;;;;4971943;28;20368;-66
2022/05/26 12:07:21;;;;;;;0.75;0.65;;;20.90;91.10;;;;;;4973342;28;20031;-65
2022/05/26 12:09:57;;;;;;;0.20;0.20;;;21.20;91.30;;;;;;4962090;28;20038;-65
2022/05/26 12:12:23;;;;;;;0.17;0.10;;;21.20;90.80;;;;;;4972200;28;20038;-64
2022/05/26 12:14:52;;;;;;;0.00;0.00;;;21.50;90.70;;;;;;4972942;28;20511;-66
2022/05/26 12:17:51;;;;;;;0.17;0.10;;;21.50;90.00;;;;;;4971410;28;20034;-66
2022/05/26 12:20:16;;;;;;;0.38;0.38;;;21.70;88.40;;;;;;4969657;28;20195;-65
2022/05/26 12:22:54;;;;;;;0.00;0.00;;;21.50;89.50;;;;;;4971754;28;20121;-65
2022/05/26 12:25:39;;;;;;;0.25;0.25;;;21.40;89.60;;;;;;4972031;28;20031;-67
2022/05/26 12:28:28;;;;;;;0.00;0.00;;;20.90;89.70;;;;;;4970462;28;20563;-65
2022/05/26 12:30:54;;;;;;;0.00;0.00;;;20.90;90.10;;;;;;4971771;28;20483;-66
2022/05/26 12:33:19;;;;;;;0.00;0.00;;;21.00;89.60;;;;;;4973110;28;20089;-65
2022/05/26 12:36:10;;;;;;;0.60;0.43;;;21.00;89.60;;;;;;4972509;28;20038;-65
2022/05/26 12:39:07;;;;;;;;;;;20.70;89.50;;;;;;4971999;28;20046;-66
2022/05/26 12:42:21;;;;;;;0.00;0.00;;;20.60;90.20;;;;;;4972774;28;20362;-64
2022/05/26 12:45:17;;;;;;;0.22;0.20;;;20.60;90.10;;;;;;4972932;28;20093;-64
2022/05/26 12:48:05;;;;;;;0.00;0.00;;;20.60;90.00;;;;;;4973055;28;20038;-65
2022/05/26 12:50:37;;;;;;;0.10;0.10;;;20.70;87.50;;;;;;4971617;28;20037;-65
2022/05/26 12:53:21;;;;;;;0.98;0.80;;;21.00;86.60;;;;;;4971537;28;20042;-65
2022/05/26 12:56:08;;;;;;;0.00;0.00;;;21.30;84.40;;;;;;4971587;28;20077;-65
2022/05/26 12:58:46;;;;;;;7.13;0.60;;;21.00;85.30;;;;;;4971672;28;20057;-66
2022/05/26 13:01:15;;;;;;;0.00;0.00;;;21.10;86.40;;;;;;4970826;28;20042;-65
2022/05/26 13:04:12;;;;;;;0.00;0.00;;;20.80;86.10;;;;;;4971307;28;20022;-66
2022/05/26 13:06:43;;;;;;;0.00;0.00;;;20.90;86.50;;;;;;4970606;28;20018;-65
2022/05/26 13:09:15;;;;;;;;;;;21.10;87.90;;;;;;4966781;28;20027;-65
2022/05/26 13:11:58;;;;;;;2.75;0.73;;;21.60;88.10;;;;;;4951776;29;20363;-65
2022/05/26 13:14:34;;;;;;;0.65;0.43;;;21.80;87.90;;;;;;4953628;28;20114;-65
2022/05/26 13:17:04;;;;;;;0.00;0.00;;;21.90;86.00;;;;;;4971978;28;20039;-65
2022/05/26 13:19:31;;;;;;;0.03;0.03;;;21.50;86.90;;;;;;4969921;28;20045;-66
2022/05/26 13:21:58;;;;;;;0.00;0.00;;;21.80;85.50;;;;;;4971625;28;20406;-65
2022/05/26 13:24:33;;;;;;;0.10;0.10;;;22.20;84.40;;;;;;4970707;28;20056;-64
2022/05/26 13:27:10;;;;;;;0.35;0.30;;;22.00;84.10;;;;;;4972242;28;20030;-64
2022/05/26 13:29:44;;;;;;;0.00;0.00;;;22.10;83.10;;;;;;4971757;28;20030;-64
2022/05/26 13:35:04;;;;;;;0.00;0.00;;;23.00;79.60;;;;;;4971283;28;20035;-64
2022/05/26 13:37:31;;;;;;;0.10;0.10;;;22.90;78.20;;;;;;4986912;28;20039;-64
2022/05/26 13:40:24;;;;;;;0.00;0.00;;;23.20;78.40;;;;;;4971268;28;20109;-64
2022/05/26 13:42:51;;;;;;;0.00;0.00;;;23.70;75.30;;;;;;4970474;28;20085;-64
2022/05/26 13:45:30;;;;;;;0.00;0.00;;;24.10;74.00;;;;;;4970880;28;20041;-65
2022/05/26 13:48:38;;;;;;;0.22;0.22;;;23.80;74.80;;;;;;4971555;28;20049;-65
2022/05/26 13:51:27;;;;;;;0.00;0.00;;;23.30;75.30;;;;;;4971731;28;20132;-65
2022/05/26 13:54:27;;;;;;;0.00;0.00;;;22.80;77.70;;;;;;4971739;28;20112;-65
2022/05/26 13:56:54;;;;;;;0.00;0.00;;;22.70;78.10;;;;;;4970655;28;20035;-65
2022/05/26 13:59:21;;;;;;;0.10;0.10;;;22.30;79.70;;;;;;4969791;28;20038;-65
2022/05/26 14:02:11;;;;;;;0.82;0.43;;;22.60;80.70;;;;;;4971501;28;20031;-65
2022/05/26 14:04:41;;;;;;;0.00;0.00;;;23.00;78.10;;;;;;4969826;28;20034;-64
2022/05/26 14:07:42;;;;;;;0.00;0.00;;;23.50;76.60;;;;;;4971620;28;20369;-65
2022/05/26 14:10:18;;;;;;;0.32;0.13;;;23.20;75.20;;;;;;4960153;28;20399;-65
2022/05/26 14:13:15;;;;;;;0.00;0.00;;;22.70;74.90;;;;;;4971447;28;20026;-65
2022/05/26 14:15:51;;;;;;;0.00;0.00;;;22.70;76.10;;;;;;4964822;28;20055;-65
2022/05/26 14:18:21;;;;;;;0.20;0.20;;;23.50;74.40;;;;;;4971574;28;20034;-65